createdAt,value
2023-01-26T00:03:15.769Z,103735.48
2023-01-26T00:06:44.737Z,103730.05
2023-01-26T00:10:14.002Z,103727.70
2023-01-26T00:13:33.409Z,103722.65
2023-01-26T00:16:55.697Z,103724.00
2023-01-26T00:20:24.893Z,103729.48
2023-01-26T00:23:54.146Z,103727.61
2023-01-26T00:27:15.602Z,103732.45
2023-01-26T00:30:44.724Z,103729.21
2023-01-26T00:34:14.275Z,103725.30
2023-01-26T00:37:33.333Z,103734.21
2023-01-26T00:41:01.817Z,103737.43
2023-01-26T00:44:10.309Z,103741.66
2023-01-26T00:47:28.928Z,103747.77
2023-01-26T00:50:58.411Z,103754.08
2023-01-26T00:54:27.716Z,103755.30
2023-01-26T00:57:56.870Z,103754.34
2023-01-26T01:01:26.059Z,103758.47
2023-01-26T01:04:55.231Z,103757.79
2023-01-26T01:08:24.691Z,103763.20
2023-01-26T01:11:54.176Z,103761.33
2023-01-26T01:15:16.046Z,103766.38
2023-01-26T01:18:45.337Z,103758.58
2023-01-26T01:22:14.560Z,103761.72
2023-01-26T01:25:43.577Z,103765.55
2023-01-26T01:29:12.843Z,103758.77
2023-01-26T01:32:42.391Z,103761.21
2023-01-26T01:36:11.979Z,103760.40
2023-01-26T01:39:41.158Z,103762.50
2023-01-26T01:43:10.233Z,103763.70
2023-01-26T01:46:39.646Z,103770.71
2023-01-26T01:50:09.100Z,103783.84
2023-01-26T01:53:32.098Z,103787.58
2023-01-26T01:57:01.440Z,103789.46
2023-01-26T02:00:30.887Z,103786.29
2023-01-26T02:04:00.195Z,103785.36
2023-01-26T02:07:19.666Z,103786.02
2023-01-26T02:10:41.209Z,103777.21
2023-01-26T02:14:10.343Z,103772.09
2023-01-26T02:17:33.224Z,103776.68
2023-01-26T02:21:11.710Z,103786.06
2023-01-26T02:24:54.808Z,103788.79
2023-01-26T02:28:24.043Z,103788.16
2023-01-26T02:31:46.188Z,103791.06
2023-01-26T02:35:15.490Z,103789.80
2023-01-26T02:38:44.400Z,103794.27
2023-01-26T02:42:11.388Z,103798.66
2023-01-26T02:45:40.155Z,103799.20
2023-01-26T02:49:08.789Z,103800.66
2023-01-26T02:52:37.797Z,103806.96
2023-01-26T02:55:57.523Z,103810.45
2023-01-26T02:59:26.484Z,103810.88
2023-01-26T03:02:55.391Z,103810.08
2023-01-26T03:06:07.590Z,103807.23
2023-01-26T03:09:28.965Z,103801.67
2023-01-26T03:12:58.247Z,103806.65
2023-01-26T03:16:21.332Z,103807.35
2023-01-26T03:19:26.040Z,103804.18
2023-01-26T03:22:54.007Z,103806.47
2023-01-26T03:26:21.415Z,103801.96
2023-01-26T03:29:50.572Z,103801.13
2023-01-26T03:33:19.430Z,103807.35
2023-01-26T03:37:27.515Z,103810.80
2023-01-26T03:40:30.303Z,103816.01
2023-01-26T03:43:57.999Z,103817.28
2023-01-26T03:47:25.425Z,103815.13
2023-01-26T03:50:52.468Z,103813.30
2023-01-26T03:54:19.634Z,103805.14
2023-01-26T03:57:48.804Z,103798.98
2023-01-26T04:01:18.095Z,103798.19
2023-01-26T04:04:45.937Z,103803.95
2023-01-26T04:08:13.297Z,103808.62
2023-01-26T04:11:42.575Z,103806.98
2023-01-26T04:15:08.773Z,103807.80
2023-01-26T04:18:35.998Z,103812.34
2023-01-26T04:22:05.160Z,103816.89
2023-01-26T04:25:34.437Z,103812.89
2023-01-26T04:29:03.935Z,103811.84
2023-01-26T04:32:23.492Z,103810.65
2023-01-26T04:35:52.666Z,103813.69
2023-01-26T04:39:22.109Z,103821.05
2023-01-26T04:42:42.826Z,103827.27
2023-01-26T04:46:11.726Z,103831.67
2023-01-26T04:49:41.108Z,103834.75
2023-01-26T04:53:09.862Z,103832.88
2023-01-26T04:56:39.209Z,103819.28
2023-01-26T05:00:07.564Z,103810.85
2023-01-26T05:03:36.611Z,103809.54
2023-01-26T05:07:05.442Z,103808.48
2023-01-26T05:10:34.742Z,103807.11
2023-01-26T05:13:56.381Z,103801.65
2023-01-26T05:17:25.348Z,103794.53
2023-01-26T05:20:54.483Z,103787.65
2023-01-26T05:24:23.719Z,103787.25
2023-01-26T05:27:52.880Z,103784.45
2023-01-26T05:31:22.172Z,103787.31
2023-01-26T05:34:51.201Z,103787.64
2023-01-26T05:38:19.895Z,103784.20
2023-01-26T05:41:49.390Z,103782.30
2023-01-26T05:45:18.656Z,103779.10
2023-01-26T05:48:38.116Z,103782.73
2023-01-26T05:52:00.172Z,103784.24
2023-01-26T05:55:29.156Z,103779.68
2023-01-26T05:58:57.859Z,103768.98
2023-01-26T06:02:26.711Z,103762.92
2023-01-26T06:05:55.649Z,103763.11
2023-01-26T06:09:27.330Z,103761.79
2023-01-26T06:12:57.093Z,103757.76
2023-01-26T06:16:26.794Z,103754.16
2023-01-26T06:19:56.240Z,103754.88
2023-01-26T06:23:24.341Z,103753.37
2023-01-26T06:26:53.151Z,103760.59
2023-01-26T06:30:22.374Z,103766.20
2023-01-26T06:33:51.368Z,103763.66
2023-01-26T06:37:20.221Z,103760.04
2023-01-26T06:40:49.467Z,103765.61
2023-01-26T06:44:18.074Z,103767.96
2023-01-26T06:47:47.336Z,103764.89
2023-01-26T06:51:19.665Z,103761.77
2023-01-26T06:54:46.834Z,103759.59
2023-01-26T06:58:15.103Z,103753.50
2023-01-26T07:01:43.784Z,103757.74
2023-01-26T07:05:12.894Z,103759.14
2023-01-26T07:08:41.630Z,103758.38
2023-01-26T07:12:10.318Z,103760.77
2023-01-26T07:15:32.053Z,103755.32
2023-01-26T07:19:00.616Z,103755.52
2023-01-26T07:22:29.691Z,103756.98
2023-01-26T07:25:58.831Z,103760.58
2023-01-26T07:29:21.179Z,103760.54
2023-01-26T07:32:50.202Z,103760.33
2023-01-26T07:36:19.728Z,103756.50
2023-01-26T07:39:48.932Z,103751.94
2023-01-26T07:43:18.000Z,103754.65
2023-01-26T07:46:52.812Z,103754.58
2023-01-26T07:50:14.764Z,103755.17
2023-01-26T07:53:43.992Z,103756.70
2023-01-26T07:57:15.440Z,103757.20
2023-01-26T08:00:44.412Z,103760.33
2023-01-26T08:03:53.339Z,103754.70
2023-01-26T08:07:22.244Z,103752.30
2023-01-26T08:10:33.330Z,103754.34
2023-01-26T08:13:52.062Z,103752.57
2023-01-26T08:17:13.742Z,103747.81
2023-01-26T08:20:52.556Z,103745.61
2023-01-26T08:24:21.332Z,103741.73
2023-01-26T08:27:50.577Z,103738.26
2023-01-26T08:31:20.023Z,103735.19
2023-01-26T08:34:49.528Z,103729.15
2023-01-26T08:38:18.746Z,103721.24
2023-01-26T08:41:48.365Z,103717.98
2023-01-26T08:45:17.714Z,103718.35
2023-01-26T08:48:46.491Z,103720.58
2023-01-26T08:52:15.483Z,103716.50
2023-01-26T08:55:35.422Z,103719.77
2023-01-26T08:59:04.858Z,103719.13
2023-01-26T09:02:23.990Z,103716.05
2023-01-26T09:05:51.526Z,103716.61
2023-01-26T09:09:20.222Z,103718.48
2023-01-26T09:12:41.709Z,103720.63
2023-01-26T09:15:51.082Z,103728.61
2023-01-26T09:19:10.637Z,103731.64
2023-01-26T09:22:39.857Z,103735.60
2023-01-26T09:26:08.760Z,103740.42
2023-01-26T09:29:37.538Z,103736.63
2023-01-26T09:33:06.799Z,103735.30
2023-01-26T09:36:35.591Z,103736.34
2023-01-26T09:40:04.291Z,103737.14
2023-01-26T09:43:50.754Z,103734.08
2023-01-26T09:47:20.359Z,103727.92
2023-01-26T09:50:52.732Z,103730.45
2023-01-26T09:54:08.230Z,103729.66
2023-01-26T09:57:36.937Z,103731.48
2023-01-26T10:01:08.708Z,103731.07
2023-01-26T10:04:38.696Z,103725.55
2023-01-26T10:07:50.468Z,103717.52
2023-01-26T10:11:19.533Z,103718.05
2023-01-26T10:14:57.616Z,103711.80
2023-01-26T10:18:26.469Z,103711.27
2023-01-26T10:21:51.533Z,103718.70
2023-01-26T10:25:20.509Z,103719.83
2023-01-26T10:28:52.550Z,103722.79
2023-01-26T10:32:21.334Z,103724.77
2023-01-26T10:35:50.208Z,103716.81
2023-01-26T10:39:31.157Z,103711.27
2023-01-26T10:42:59.896Z,103726.16
2023-01-26T10:46:29.223Z,103725.80
2023-01-26T10:49:58.508Z,103723.57
2023-01-26T10:53:23.823Z,103723.54
2023-01-26T10:57:02.162Z,103729.89
2023-01-26T11:00:33.833Z,103736.23
2023-01-26T11:04:17.926Z,103739.84
2023-01-26T11:07:52.559Z,103738.31
2023-01-26T11:11:33.426Z,103724.97
2023-01-26T11:15:07.187Z,103704.41
2023-01-26T11:18:32.988Z,103694.14
2023-01-26T11:22:04.664Z,103699.24
2023-01-26T11:25:52.323Z,103688.66
2023-01-26T11:29:35.701Z,103704.15
2023-01-26T11:33:16.114Z,103703.28
2023-01-26T11:36:53.589Z,103704.70
2023-01-26T11:40:31.337Z,103692.07
2023-01-26T11:44:15.977Z,103681.79
2023-01-26T11:47:56.951Z,103673.51
2023-01-26T11:51:24.654Z,103658.21
2023-01-26T11:54:59.058Z,103654.96
2023-01-26T11:58:45.596Z,103656.74
2023-01-26T12:02:09.910Z,103652.81
2023-01-26T12:05:39.147Z,103660.62
2023-01-26T12:09:12.183Z,103665.16
2023-01-26T12:12:44.303Z,103672.14
2023-01-26T12:16:16.327Z,103678.42
2023-01-26T12:19:48.068Z,103671.02
2023-01-26T12:23:23.487Z,103663.07
2023-01-26T12:26:45.664Z,103669.39
2023-01-26T12:30:29.680Z,103662.13
2023-01-26T12:33:59.107Z,103661.27
2023-01-26T12:37:40.084Z,103668.10
2023-01-26T12:41:19.873Z,103653.66
2023-01-26T12:44:57.194Z,103645.59
2023-01-26T12:48:38.266Z,103644.50
2023-01-26T12:52:10.716Z,103645.42
2023-01-26T12:55:40.040Z,103648.39
2023-01-26T12:59:09.322Z,103653.24
2023-01-26T13:02:39.986Z,103646.00
2023-01-26T13:06:01.546Z,103641.37
2023-01-26T13:09:33.627Z,103636.50
2023-01-26T13:13:01.255Z,103638.13
2023-01-26T13:16:30.460Z,103638.42
2023-01-26T13:20:18.236Z,103647.64
2023-01-26T13:23:37.549Z,103645.36
2023-01-26T13:27:19.080Z,103631.20
2023-01-26T13:31:06.289Z,103635.40
2023-01-26T13:34:26.810Z,103647.56
2023-01-26T13:37:55.855Z,103659.04
2023-01-26T13:41:30.842Z,103666.77
2023-01-26T13:44:56.265Z,103658.92
2023-01-26T13:48:10.600Z,103657.16
2023-01-26T13:51:39.423Z,103659.82
2023-01-26T13:55:13.871Z,103665.36
2023-01-26T13:58:55.344Z,103667.34
2023-01-26T14:02:24.108Z,103659.41
2023-01-26T14:05:45.911Z,103654.59
2023-01-26T14:09:14.606Z,103658.67
2023-01-26T14:12:43.836Z,103668.73
2023-01-26T14:16:14.207Z,103673.88
2023-01-26T14:19:55.506Z,103657.89
2023-01-26T14:23:23.175Z,103650.04
2023-01-26T14:26:55.103Z,103645.70
2023-01-26T14:30:24.022Z,103635.67
2023-01-26T14:33:52.774Z,103634.30
2023-01-26T14:37:22.002Z,103631.35
2023-01-26T14:40:51.303Z,103634.46
2023-01-26T14:44:20.492Z,103632.59
2023-01-26T14:48:00.885Z,103630.02
2023-01-26T14:51:29.899Z,103621.92
2023-01-26T14:55:07.375Z,103621.66
2023-01-26T14:58:36.261Z,103627.02
2023-01-26T15:02:05.567Z,103633.96
2023-01-26T15:05:33.662Z,103632.19
2023-01-26T15:09:06.096Z,103630.03
2023-01-26T15:12:37.992Z,103621.29
2023-01-26T15:16:09.721Z,103621.30
2023-01-26T15:19:42.765Z,103612.21
2023-01-26T15:23:17.438Z,103609.67
2023-01-26T15:26:46.621Z,103609.27
2023-01-26T15:30:24.463Z,103603.36
2023-01-26T15:33:47.043Z,103600.91
2023-01-26T15:37:29.090Z,103612.05
2023-01-26T15:40:59.213Z,103615.67
2023-01-26T15:44:29.813Z,103618.27
2023-01-26T15:47:58.943Z,103620.30
2023-01-26T15:51:31.436Z,103628.50
2023-01-26T15:53:59.895Z,103627.27
2023-01-26T15:56:29.013Z,103635.27
2023-01-26T15:59:00.869Z,103634.77
2023-01-26T16:01:29.529Z,103640.60
2023-01-26T16:03:58.203Z,103644.38
2023-01-26T16:06:35.357Z,103643.69
2023-01-26T16:09:08.059Z,103644.56
2023-01-26T16:11:50.575Z,103651.62
2023-01-26T16:14:19.400Z,103649.70
2023-01-26T16:16:48.438Z,103646.85
2023-01-26T16:19:34.495Z,103649.61
2023-01-26T16:22:07.469Z,103650.55
2023-01-26T16:24:36.137Z,103647.23
2023-01-26T16:27:07.784Z,103645.37
2023-01-26T16:29:37.012Z,103649.45
2023-01-26T16:32:25.962Z,103652.40
2023-01-26T16:34:54.538Z,103654.39
2023-01-26T16:37:26.312Z,103656.82
2023-01-26T16:39:54.889Z,103660.13
2023-01-26T16:42:26.489Z,103659.83
2023-01-26T16:45:04.262Z,103657.64
2023-01-26T16:47:34.014Z,103658.48
2023-01-26T16:50:03.109Z,103659.73
2023-01-26T16:52:31.701Z,103660.86
2023-01-26T16:55:13.639Z,103665.17
2023-01-26T16:57:56.111Z,103668.15
2023-01-26T17:00:25.779Z,103673.06
2023-01-26T17:02:54.575Z,103674.45
2023-01-26T17:05:23.904Z,103678.27
2023-01-26T17:07:53.221Z,103672.57
2023-01-26T17:10:25.090Z,103672.63
2023-01-26T17:12:54.093Z,103668.21
2023-01-26T17:15:25.858Z,103667.33
2023-01-26T17:17:54.599Z,103663.41
2023-01-26T17:20:23.592Z,103650.32
2023-01-26T17:22:52.125Z,103647.99
2023-01-26T17:25:21.105Z,103643.58
2023-01-26T17:27:53.379Z,103630.14
2023-01-26T17:30:22.270Z,103624.22
2023-01-26T17:32:51.115Z,103618.52
2023-01-26T17:35:19.958Z,103608.71
2023-01-26T17:37:54.465Z,103608.91
2023-01-26T17:40:27.302Z,103607.13
2023-01-26T17:42:56.559Z,103606.19
2023-01-26T17:46:20.353Z,103613.36
2023-01-26T17:49:18.557Z,103617.80
2023-01-26T17:51:56.648Z,103620.65
2023-01-26T17:54:25.991Z,103623.06
2023-01-26T17:57:16.174Z,103631.84
2023-01-26T17:59:45.160Z,103631.71
2023-01-26T18:02:40.098Z,103623.29
2023-01-26T18:05:33.024Z,103622.06
2023-01-26T18:08:15.325Z,103622.83
2023-01-26T18:10:52.212Z,103616.55
2023-01-26T18:13:24.065Z,103621.59
2023-01-26T18:16:16.412Z,103621.96
2023-01-26T18:19:05.536Z,103617.02
2023-01-26T18:21:37.852Z,103604.21
2023-01-26T18:24:27.197Z,103610.36
2023-01-26T18:26:59.326Z,103615.14
2023-01-26T18:29:31.375Z,103613.86
2023-01-26T18:32:09.651Z,103608.30
2023-01-26T18:34:41.935Z,103603.27
2023-01-26T18:37:12.189Z,103612.23
2023-01-26T18:39:41.173Z,103619.61
2023-01-26T18:42:10.279Z,103611.89
2023-01-26T18:44:39.375Z,103612.94
2023-01-26T18:47:11.586Z,103608.86
2023-01-26T18:49:43.402Z,103617.16
2023-01-26T18:52:12.777Z,103620.60
2023-01-26T18:54:41.743Z,103590.91
2023-01-26T18:57:11.193Z,103569.98
2023-01-26T18:59:40.257Z,103567.50
2023-01-26T19:02:09.455Z,103563.95
2023-01-26T19:04:38.347Z,103563.02
2023-01-26T19:07:07.274Z,103558.42
2023-01-26T19:09:40.292Z,103560.21
2023-01-26T19:12:09.875Z,103567.48
2023-01-26T19:14:38.537Z,103558.35
2023-01-26T19:17:07.243Z,103549.86
2023-01-26T19:19:43.228Z,103536.13
2023-01-26T19:22:12.197Z,103520.90
2023-01-26T19:24:41.097Z,103515.42
2023-01-26T19:27:12.884Z,103508.20
2023-01-26T19:29:41.694Z,103498.56
2023-01-26T19:33:08.728Z,103492.36
2023-01-26T19:36:41.017Z,103495.03
2023-01-26T19:40:10.319Z,103501.58
2023-01-26T19:43:39.456Z,103513.01
2023-01-26T19:47:08.657Z,103512.48
2023-01-26T19:50:20.757Z,103508.30
2023-01-26T19:53:47.726Z,103500.30
2023-01-26T19:57:19.809Z,103500.25
2023-01-26T20:00:49.506Z,103483.66
2023-01-26T20:04:18.770Z,103491.05
2023-01-26T20:07:47.895Z,103487.25
2023-01-26T20:11:16.791Z,103480.47
2023-01-26T20:14:42.316Z,103479.03
2023-01-26T20:18:01.560Z,103476.86
2023-01-26T20:21:30.908Z,103466.31
2023-01-26T20:25:00.115Z,103456.77
2023-01-26T20:28:29.098Z,103441.77
2023-01-26T20:31:58.339Z,103422.00
2023-01-26T20:35:27.269Z,103407.01
2023-01-26T20:38:55.726Z,103404.55
2023-01-26T20:42:24.962Z,103405.21
2023-01-26T20:45:54.356Z,103410.15
2023-01-26T20:49:23.818Z,103412.09
2023-01-26T20:52:52.924Z,103407.81
2023-01-26T20:56:22.045Z,103410.13
2023-01-26T20:59:51.143Z,103417.23
2023-01-26T21:03:14.780Z,103427.45
2023-01-26T21:06:26.991Z,103416.98
2023-01-26T21:09:56.309Z,103403.62
2023-01-26T21:13:11.287Z,103397.85
2023-01-26T21:16:40.567Z,103402.27
2023-01-26T21:20:10.280Z,103401.32
2023-01-26T21:23:33.326Z,103395.83
2023-01-26T21:27:02.501Z,103398.95
2023-01-26T21:30:31.722Z,103399.11
2023-01-26T21:34:00.987Z,103382.60
2023-01-26T21:37:30.205Z,103372.30
2023-01-26T21:40:49.598Z,103367.01
2023-01-26T21:44:08.136Z,103368.95
2023-01-26T21:47:37.178Z,103351.14
2023-01-26T21:51:05.184Z,103347.13
2023-01-26T21:54:34.341Z,103344.10
2023-01-26T21:58:01.907Z,103339.20
2023-01-26T22:01:29.625Z,103333.80
2023-01-26T22:04:58.457Z,103326.79
2023-01-26T22:08:27.837Z,103332.75
2023-01-26T22:11:59.766Z,103336.77
2023-01-26T22:15:28.664Z,103328.52
2023-01-26T22:18:57.568Z,103328.67
2023-01-26T22:22:26.996Z,103328.55
2023-01-26T22:25:56.386Z,103337.40
2023-01-26T22:29:25.380Z,103336.84
2023-01-26T22:32:54.140Z,103340.76
2023-01-26T22:36:23.249Z,103351.09
2023-01-26T22:39:52.538Z,103359.97
2023-01-26T22:43:21.896Z,103351.83
2023-01-26T22:46:50.713Z,103359.98
2023-01-26T22:50:20.006Z,103336.29
2023-01-26T22:53:49.636Z,103326.42
2023-01-26T22:57:18.866Z,103325.31
2023-01-26T23:00:48.740Z,103323.95
2023-01-26T23:04:17.862Z,103312.38
2023-01-26T23:07:47.098Z,103314.09
2023-01-26T23:11:16.376Z,103308.90
2023-01-26T23:14:45.627Z,103314.05
2023-01-26T23:18:14.897Z,103304.98
2023-01-26T23:21:43.906Z,103296.66
2023-01-26T23:25:15.528Z,103298.80
2023-01-26T23:28:36.944Z,103305.64
2023-01-26T23:32:05.718Z,103306.81
2023-01-26T23:35:34.849Z,103297.82
2023-01-26T23:39:03.848Z,103289.25
2023-01-26T23:43:03.524Z,103280.45
2023-01-26T23:46:12.824Z,103268.21
2023-01-26T23:49:41.975Z,103266.70
2023-01-26T23:53:11.356Z,103262.10
2023-01-26T23:56:40.428Z,103256.36
